sensor_id;sensor_type;location;lat;lon;timestamp;temperature;humidity
75738;DHT22;64356;45.638;13.764;2024-01-16T00:00:31;17.90;52.40
75738;DHT22;64356;45.638;13.764;2024-01-16T00:02:57;18.00;52.40
75738;DHT22;64356;45.638;13.764;2024-01-16T00:05:23;17.90;52.30
75738;DHT22;64356;45.638;13.764;2024-01-16T00:07:48;17.90;52.30
75738;DHT22;64356;45.638;13.764;2024-01-16T00:10:14;17.90;52.30
75738;DHT22;64356;45.638;13.764;2024-01-16T00:12:41;17.90;52.20
75738;DHT22;64356;45.638;13.764;2024-01-16T00:15:06;17.90;52.20
75738;DHT22;64356;45.638;13.764;2024-01-16T00:17:32;17.90;52.20
75738;DHT22;64356;45.638;13.764;2024-01-16T00:19:58;17.90;52.20
75738;DHT22;64356;45.638;13.764;2024-01-16T00:22:29;17.90;52.10
75738;DHT22;64356;45.638;13.764;2024-01-16T00:24:54;17.90;52.10
75738;DHT22;64356;45.638;13.764;2024-01-16T00:27:20;17.90;52.10
75738;DHT22;64356;45.638;13.764;2024-01-16T00:29:46;17.90;52.10
75738;DHT22;64356;45.638;13.764;2024-01-16T00:32:13;17.90;52.10
75738;DHT22;64356;45.638;13.764;2024-01-16T00:34:45;17.90;52.00
75738;DHT22;64356;45.638;13.764;2024-01-16T00:37:11;17.90;52.10
75738;DHT22;64356;45.638;13.764;2024-01-16T00:39:36;17.80;52.00
75738;DHT22;64356;45.638;13.764;2024-01-16T00:42:02;17.90;52.00
75738;DHT22;64356;45.638;13.764;2024-01-16T00:44:28;17.80;51.90
75738;DHT22;64356;45.638;13.764;2024-01-16T00:46:54;17.80;52.00
75738;DHT22;64356;45.638;13.764;2024-01-16T00:49:19;17.80;52.00
75738;DHT22;64356;45.638;13.764;2024-01-16T00:51:45;17.80;52.00
75738;DHT22;64356;45.638;13.764;2024-01-16T00:54:11;17.80;52.00
75738;DHT22;64356;45.638;13.764;2024-01-16T00:56:36;17.80;52.00
75738;DHT22;64356;45.638;13.764;2024-01-16T00:59:02;17.80;52.00
75738;DHT22;64356;45.638;13.764;2024-01-16T01:01:27;17.80;52.00
75738;DHT22;64356;45.638;13.764;2024-01-16T01:03:53;17.80;52.00
75738;DHT22;64356;45.638;13.764;2024-01-16T01:06:20;17.80;52.00
75738;DHT22;64356;45.638;13.764;2024-01-16T01:08:46;17.80;52.00
75738;DHT22;64356;45.638;13.764;2024-01-16T01:11:11;17.80;52.00
75738;DHT22;64356;45.638;13.764;2024-01-16T01:13:37;17.80;51.90
75738;DHT22;64356;45.638;13.764;2024-01-16T01:16:03;17.80;51.90
75738;DHT22;64356;45.638;13.764;2024-01-16T01:18:28;17.70;51.80
75738;DHT22;64356;45.638;13.764;2024-01-16T01:20:54;17.70;51.90
75738;DHT22;64356;45.638;13.764;2024-01-16T01:23:20;17.70;51.80
75738;DHT22;64356;45.638;13.764;2024-01-16T01:25:45;17.70;51.70
75738;DHT22;64356;45.638;13.764;2024-01-16T01:28:11;17.70;51.70
75738;DHT22;64356;45.638;13.764;2024-01-16T01:30:37;17.70;51.70
75738;DHT22;64356;45.638;13.764;2024-01-16T01:33:03;17.70;51.60
75738;DHT22;64356;45.638;13.764;2024-01-16T01:35:30;17.70;51.60
75738;DHT22;64356;45.638;13.764;2024-01-16T01:37:55;17.70;51.60
75738;DHT22;64356;45.638;13.764;2024-01-16T01:40:21;17.70;51.60
75738;DHT22;64356;45.638;13.764;2024-01-16T01:42:46;17.70;51.50
75738;DHT22;64356;45.638;13.764;2024-01-16T01:45:12;17.70;51.40
75738;DHT22;64356;45.638;13.764;2024-01-16T01:47:39;17.70;51.40
75738;DHT22;64356;45.638;13.764;2024-01-16T01:50:05;17.70;51.40
75738;DHT22;64356;45.638;13.764;2024-01-16T01:52:31;17.70;51.30
75738;DHT22;64356;45.638;13.764;2024-01-16T01:54:57;17.70;51.30
75738;DHT22;64356;45.638;13.764;2024-01-16T01:57:23;17.70;51.20
75738;DHT22;64356;45.638;13.764;2024-01-16T01:59:49;17.70;51.20
75738;DHT22;64356;45.638;13.764;2024-01-16T02:02:15;17.60;51.20
75738;DHT22;64356;45.638;13.764;2024-01-16T02:04:41;17.60;51.10
75738;DHT22;64356;45.638;13.764;2024-01-16T02:07:08;17.70;51.10
75738;DHT22;64356;45.638;13.764;2024-01-16T02:09:35;17.60;51.10
75738;DHT22;64356;45.638;13.764;2024-01-16T02:12:01;17.70;51.10
75738;DHT22;64356;45.638;13.764;2024-01-16T02:14:27;17.60;51.10
75738;DHT22;64356;45.638;13.764;2024-01-16T02:16:53;17.60;51.10
75738;DHT22;64356;45.638;13.764;2024-01-16T02:19:19;17.70;51.10
75738;DHT22;64356;45.638;13.764;2024-01-16T02:21:48;17.60;51.00
75738;DHT22;64356;45.638;13.764;2024-01-16T02:24:14;17.60;51.00
75738;DHT22;64356;45.638;13.764;2024-01-16T02:26:40;17.60;51.00
75738;DHT22;64356;45.638;13.764;2024-01-16T02:29:06;17.60;50.90
75738;DHT22;64356;45.638;13.764;2024-01-16T02:31:34;17.60;50.90
75738;DHT22;64356;45.638;13.764;2024-01-16T02:34:00;17.60;50.90
75738;DHT22;64356;45.638;13.764;2024-01-16T02:36:26;17.60;50.90
75738;DHT22;64356;45.638;13.764;2024-01-16T02:38:52;17.60;50.90
75738;DHT22;64356;45.638;13.764;2024-01-16T02:41:18;17.60;50.90
75738;DHT22;64356;45.638;13.764;2024-01-16T02:43:43;17.60;50.90
75738;DHT22;64356;45.638;13.764;2024-01-16T02:46:09;17.60;50.90
75738;DHT22;64356;45.638;13.764;2024-01-16T02:48:35;17.60;50.90
75738;DHT22;64356;45.638;13.764;2024-01-16T02:51:01;17.60;50.90
75738;DHT22;64356;45.638;13.764;2024-01-16T02:53:27;17.50;50.70
75738;DHT22;64356;45.638;13.764;2024-01-16T02:55:54;17.60;50.80
75738;DHT22;64356;45.638;13.764;2024-01-16T02:58:20;17.50;50.70
75738;DHT22;64356;45.638;13.764;2024-01-16T03:00:45;17.60;50.70
75738;DHT22;64356;45.638;13.764;2024-01-16T03:03:12;17.50;50.70
75738;DHT22;64356;45.638;13.764;2024-01-16T03:05:37;17.50;50.60
75738;DHT22;64356;45.638;13.764;2024-01-16T03:08:03;17.50;50.60
75738;DHT22;64356;45.638;13.764;2024-01-16T03:10:29;17.50;50.50
75738;DHT22;64356;45.638;13.764;2024-01-16T03:12:55;17.50;50.50
75738;DHT22;64356;45.638;13.764;2024-01-16T03:15:20;17.50;50.50
75738;DHT22;64356;45.638;13.764;2024-01-16T03:17:47;17.50;50.40
75738;DHT22;64356;45.638;13.764;2024-01-16T03:20:12;17.50;50.40
75738;DHT22;64356;45.638;13.764;2024-01-16T03:22:38;17.50;50.40
75738;DHT22;64356;45.638;13.764;2024-01-16T03:25:04;17.50;50.30
75738;DHT22;64356;45.638;13.764;2024-01-16T03:27:30;17.50;50.30
75738;DHT22;64356;45.638;13.764;2024-01-16T03:29:56;17.50;50.30
75738;DHT22;64356;45.638;13.764;2024-01-16T03:32:23;17.50;50.80
75738;DHT22;64356;45.638;13.764;2024-01-16T03:34:49;17.50;50.30
75738;DHT22;64356;45.638;13.764;2024-01-16T03:37:14;17.50;50.30
75738;DHT22;64356;45.638;13.764;2024-01-16T03:39:40;17.50;50.30
75738;DHT22;64356;45.638;13.764;2024-01-16T03:42:06;17.50;50.20
75738;DHT22;64356;45.638;13.764;2024-01-16T03:44:31;17.40;50.20
75738;DHT22;64356;45.638;13.764;2024-01-16T03:46:57;17.50;50.20
75738;DHT22;64356;45.638;13.764;2024-01-16T03:49:23;17.40;50.20
75738;DHT22;64356;45.638;13.764;2024-01-16T03:51:49;17.40;50.20
75738;DHT22;64356;45.638;13.764;2024-01-16T03:54:14;17.40;50.20
75738;DHT22;64356;45.638;13.764;2024-01-16T03:56:40;17.40;50.20
75738;DHT22;64356;45.638;13.764;2024-01-16T03:59:06;17.40;50.20
75738;DHT22;64356;45.638;13.764;2024-01-16T04:01:32;17.40;50.20
75738;DHT22;64356;45.638;13.764;2024-01-16T04:03:58;17.40;50.20
75738;DHT22;64356;45.638;13.764;2024-01-16T04:06:23;17.40;50.30
75738;DHT22;64356;45.638;13.764;2024-01-16T04:08:49;17.60;50.00
75738;DHT22;64356;45.638;13.764;2024-01-16T04:11:14;17.90;48.90
75738;DHT22;64356;45.638;13.764;2024-01-16T04:13:40;18.20;48.00
75738;DHT22;64356;45.638;13.764;2024-01-16T04:16:06;18.50;47.10
75738;DHT22;64356;45.638;13.764;2024-01-16T04:18:39;18.80;46.30
75738;DHT22;64356;45.638;13.764;2024-01-16T04:21:05;19.00;45.70
75738;DHT22;64356;45.638;13.764;2024-01-16T04:23:31;19.10;44.90
75738;DHT22;64356;45.638;13.764;2024-01-16T04:25:57;19.30;44.50
75738;DHT22;64356;45.638;13.764;2024-01-16T04:28:23;19.40;44.00
75738;DHT22;64356;45.638;13.764;2024-01-16T04:30:49;19.50;43.70
75738;DHT22;64356;45.638;13.764;2024-01-16T04:33:14;19.70;43.40
75738;DHT22;64356;45.638;13.764;2024-01-16T04:35:40;19.80;43.20
75738;DHT22;64356;45.638;13.764;2024-01-16T04:38:06;19.90;42.90
75738;DHT22;64356;45.638;13.764;2024-01-16T04:40:33;20.10;42.60
75738;DHT22;64356;45.638;13.764;2024-01-16T04:42:59;20.20;42.40
75738;DHT22;64356;45.638;13.764;2024-01-16T04:45:24;20.30;42.00
75738;DHT22;64356;45.638;13.764;2024-01-16T04:47:50;20.40;41.80
75738;DHT22;64356;45.638;13.764;2024-01-16T04:50:15;20.50;41.40
75738;DHT22;64356;45.638;13.764;2024-01-16T04:52:41;20.60;41.20
75738;DHT22;64356;45.638;13.764;2024-01-16T04:55:07;20.70;41.10
75738;DHT22;64356;45.638;13.764;2024-01-16T04:57:33;20.80;40.80
75738;DHT22;64356;45.638;13.764;2024-01-16T04:59:58;20.90;40.70
75738;DHT22;64356;45.638;13.764;2024-01-16T05:02:24;21.00;40.40
75738;DHT22;64356;45.638;13.764;2024-01-16T05:04:50;21.10;40.20
75738;DHT22;64356;45.638;13.764;2024-01-16T05:07:20;21.20;40.10
75738;DHT22;64356;45.638;13.764;2024-01-16T05:09:46;21.30;40.40
75738;DHT22;64356;45.638;13.764;2024-01-16T05:12:12;21.40;39.60
75738;DHT22;64356;45.638;13.764;2024-01-16T05:14:37;21.50;39.40
75738;DHT22;64356;45.638;13.764;2024-01-16T05:17:03;21.60;39.70
75738;DHT22;64356;45.638;13.764;2024-01-16T05:19:29;21.70;39.20
75738;DHT22;64356;45.638;13.764;2024-01-16T05:21:54;21.70;39.00
75738;DHT22;64356;45.638;13.764;2024-01-16T05:24:20;21.80;38.80
75738;DHT22;64356;45.638;13.764;2024-01-16T05:26:46;21.80;38.70
75738;DHT22;64356;45.638;13.764;2024-01-16T05:29:11;21.90;38.70
75738;DHT22;64356;45.638;13.764;2024-01-16T05:31:40;21.90;38.50
75738;DHT22;64356;45.638;13.764;2024-01-16T05:34:06;22.00;38.40
75738;DHT22;64356;45.638;13.764;2024-01-16T05:36:32;22.10;38.20
75738;DHT22;64356;45.638;13.764;2024-01-16T05:38:58;22.10;38.10
75738;DHT22;64356;45.638;13.764;2024-01-16T05:41:23;22.20;37.80
75738;DHT22;64356;45.638;13.764;2024-01-16T05:43:49;22.20;37.80
75738;DHT22;64356;45.638;13.764;2024-01-16T05:46:16;22.20;37.60
75738;DHT22;64356;45.638;13.764;2024-01-16T05:48:41;22.30;37.60
75738;DHT22;64356;45.638;13.764;2024-01-16T05:51:07;22.30;37.20
75738;DHT22;64356;45.638;13.764;2024-01-16T05:53:32;22.40;37.40
75738;DHT22;64356;45.638;13.764;2024-01-16T05:55:58;22.40;37.10
75738;DHT22;64356;45.638;13.764;2024-01-16T05:58:24;22.40;37.00
75738;DHT22;64356;45.638;13.764;2024-01-16T06:00:49;22.40;36.90
75738;DHT22;64356;45.638;13.764;2024-01-16T06:03:15;22.40;36.80
75738;DHT22;64356;45.638;13.764;2024-01-16T06:05:40;22.40;36.70
75738;DHT22;64356;45.638;13.764;2024-01-16T06:08:06;22.40;36.90
75738;DHT22;64356;45.638;13.764;2024-01-16T06:10:32;22.40;36.70
75738;DHT22;64356;45.638;13.764;2024-01-16T06:12:58;22.40;36.60
75738;DHT22;64356;45.638;13.764;2024-01-16T06:15:23;22.40;36.70
75738;DHT22;64356;45.638;13.764;2024-01-16T06:17:49;22.50;36.70
75738;DHT22;64356;45.638;13.764;2024-01-16T06:20:14;22.40;36.90
75738;DHT22;64356;45.638;13.764;2024-01-16T06:22:40;22.40;36.60
75738;DHT22;64356;45.638;13.764;2024-01-16T06:25:06;22.40;36.50
75738;DHT22;64356;45.638;13.764;2024-01-16T06:27:32;22.40;36.40
75738;DHT22;64356;45.638;13.764;2024-01-16T06:29:58;22.40;35.90
75738;DHT22;64356;45.638;13.764;2024-01-16T06:32:23;22.40;35.80
75738;DHT22;64356;45.638;13.764;2024-01-16T06:34:49;22.40;36.30
75738;DHT22;64356;45.638;13.764;2024-01-16T06:37:14;22.40;36.50
75738;DHT22;64356;45.638;13.764;2024-01-16T06:42:11;22.40;36.60
75738;DHT22;64356;45.638;13.764;2024-01-16T06:44:36;22.40;36.90
75738;DHT22;64356;45.638;13.764;2024-01-16T06:47:02;22.40;36.90
75738;DHT22;64356;45.638;13.764;2024-01-16T06:49:28;22.40;36.90
75738;DHT22;64356;45.638;13.764;2024-01-16T06:51:53;22.40;37.20
75738;DHT22;64356;45.638;13.764;2024-01-16T06:54:19;22.40;37.60
75738;DHT22;64356;45.638;13.764;2024-01-16T06:56:45;22.40;37.50
75738;DHT22;64356;45.638;13.764;2024-01-16T06:59:11;22.30;33.50
75738;DHT22;64356;45.638;13.764;2024-01-16T07:01:39;21.80;29.70
75738;DHT22;64356;45.638;13.764;2024-01-16T07:04:04;21.20;29.30
75738;DHT22;64356;45.638;13.764;2024-01-16T07:06:31;20.50;29.30
75738;DHT22;64356;45.638;13.764;2024-01-16T07:08:58;20.20;31.50
75738;DHT22;64356;45.638;13.764;2024-01-16T07:11:23;20.30;32.80
75738;DHT22;64356;45.638;13.764;2024-01-16T07:13:49;20.60;33.60
75738;DHT22;64356;45.638;13.764;2024-01-16T07:16:15;20.90;34.60
75738;DHT22;64356;45.638;13.764;2024-01-16T07:18:40;21.20;35.30
75738;DHT22;64356;45.638;13.764;2024-01-16T07:21:18;21.40;35.50
75738;DHT22;64356;45.638;13.764;2024-01-16T07:23:44;21.60;35.60
75738;DHT22;64356;45.638;13.764;2024-01-16T07:26:10;21.80;36.20
75738;DHT22;64356;45.638;13.764;2024-01-16T07:28:35;21.90;36.70
75738;DHT22;64356;45.638;13.764;2024-01-16T07:31:01;22.00;38.00
75738;DHT22;64356;45.638;13.764;2024-01-16T07:33:27;22.10;37.60
75738;DHT22;64356;45.638;13.764;2024-01-16T07:35:52;22.10;37.10
75738;DHT22;64356;45.638;13.764;2024-01-16T07:38:18;22.20;38.70
75738;DHT22;64356;45.638;13.764;2024-01-16T07:40:44;22.20;38.00
75738;DHT22;64356;45.638;13.764;2024-01-16T07:43:10;22.20;39.50
75738;DHT22;64356;45.638;13.764;2024-01-16T07:45:35;22.20;39.60
75738;DHT22;64356;45.638;13.764;2024-01-16T07:48:01;22.20;39.10
75738;DHT22;64356;45.638;13.764;2024-01-16T07:50:26;22.20;39.00
75738;DHT22;64356;45.638;13.764;2024-01-16T07:52:52;22.20;38.90
75738;DHT22;64356;45.638;13.764;2024-01-16T07:55:18;22.30;38.90
75738;DHT22;64356;45.638;13.764;2024-01-16T07:57:43;22.30;39.10
75738;DHT22;64356;45.638;13.764;2024-01-16T08:00:09;22.30;39.70
75738;DHT22;64356;45.638;13.764;2024-01-16T08:02:37;22.30;39.50
75738;DHT22;64356;45.638;13.764;2024-01-16T08:05:03;22.20;39.20
75738;DHT22;64356;45.638;13.764;2024-01-16T08:07:29;22.20;39.50
75738;DHT22;64356;45.638;13.764;2024-01-16T08:09:54;22.10;39.20
75738;DHT22;64356;45.638;13.764;2024-01-16T08:12:20;22.10;39.60
75738;DHT22;64356;45.638;13.764;2024-01-16T08:14:45;22.00;40.10
75738;DHT22;64356;45.638;13.764;2024-01-16T08:17:11;22.00;39.30
75738;DHT22;64356;45.638;13.764;2024-01-16T08:19:37;21.90;38.80
75738;DHT22;64356;45.638;13.764;2024-01-16T08:22:02;21.90;38.80
75738;DHT22;64356;45.638;13.764;2024-01-16T08:24:28;21.80;38.70
75738;DHT22;64356;45.638;13.764;2024-01-16T08:26:55;21.80;38.80
75738;DHT22;64356;45.638;13.764;2024-01-16T08:29:23;21.80;38.50
75738;DHT22;64356;45.638;13.764;2024-01-16T08:31:49;21.80;39.00
75738;DHT22;64356;45.638;13.764;2024-01-16T08:34:16;21.80;38.70
75738;DHT22;64356;45.638;13.764;2024-01-16T08:36:42;21.80;38.80
75738;DHT22;64356;45.638;13.764;2024-01-16T08:39:08;21.80;38.80
75738;DHT22;64356;45.638;13.764;2024-01-16T08:41:33;21.80;38.80
75738;DHT22;64356;45.638;13.764;2024-01-16T08:43:59;21.90;38.40
75738;DHT22;64356;45.638;13.764;2024-01-16T08:46:24;21.90;38.30
75738;DHT22;64356;45.638;13.764;2024-01-16T08:48:50;21.90;38.50
75738;DHT22;64356;45.638;13.764;2024-01-16T08:51:16;21.90;38.20
75738;DHT22;64356;45.638;13.764;2024-01-16T08:53:42;21.90;37.80
75738;DHT22;64356;45.638;13.764;2024-01-16T08:56:08;22.00;38.30
75738;DHT22;64356;45.638;13.764;2024-01-16T08:58:34;22.00;38.30
75738;DHT22;64356;45.638;13.764;2024-01-16T09:01:03;22.00;37.80
75738;DHT22;64356;45.638;13.764;2024-01-16T09:03:30;22.10;37.30
75738;DHT22;64356;45.638;13.764;2024-01-16T09:05:56;22.10;36.50
75738;DHT22;64356;45.638;13.764;2024-01-16T09:08:22;22.10;37.40
75738;DHT22;64356;45.638;13.764;2024-01-16T09:10:47;22.20;38.60
75738;DHT22;64356;45.638;13.764;2024-01-16T09:13:13;22.20;39.40
75738;DHT22;64356;45.638;13.764;2024-01-16T09:15:39;22.20;39.60
75738;DHT22;64356;45.638;13.764;2024-01-16T09:18:05;22.20;39.90
75738;DHT22;64356;45.638;13.764;2024-01-16T09:20:32;22.20;40.60
75738;DHT22;64356;45.638;13.764;2024-01-16T09:22:58;22.20;40.70
75738;DHT22;64356;45.638;13.764;2024-01-16T09:25:23;22.30;41.30
75738;DHT22;64356;45.638;13.764;2024-01-16T09:27:50;22.30;41.50
75738;DHT22;64356;45.638;13.764;2024-01-16T09:30:16;22.30;41.70
75738;DHT22;64356;45.638;13.764;2024-01-16T09:32:43;22.30;41.70
75738;DHT22;64356;45.638;13.764;2024-01-16T09:35:08;22.30;41.60
75738;DHT22;64356;45.638;13.764;2024-01-16T09:37:40;22.30;41.70
75738;DHT22;64356;45.638;13.764;2024-01-16T09:40:06;22.30;41.90
75738;DHT22;64356;45.638;13.764;2024-01-16T09:42:32;22.40;42.30
75738;DHT22;64356;45.638;13.764;2024-01-16T09:44:58;22.40;41.40
75738;DHT22;64356;45.638;13.764;2024-01-16T09:47:25;22.50;41.10
75738;DHT22;64356;45.638;13.764;2024-01-16T09:49:51;22.40;41.30
75738;DHT22;64356;45.638;13.764;2024-01-16T09:52:18;22.50;41.50
75738;DHT22;64356;45.638;13.764;2024-01-16T09:54:44;22.50;41.50
75738;DHT22;64356;45.638;13.764;2024-01-16T09:57:10;22.50;41.50
75738;DHT22;64356;45.638;13.764;2024-01-16T09:59:38;22.50;41.20
75738;DHT22;64356;45.638;13.764;2024-01-16T10:02:05;22.50;41.10
75738;DHT22;64356;45.638;13.764;2024-01-16T10:04:33;22.60;41.70
75738;DHT22;64356;45.638;13.764;2024-01-16T10:06:59;22.70;41.30
75738;DHT22;64356;45.638;13.764;2024-01-16T10:09:27;22.70;40.80
75738;DHT22;64356;45.638;13.764;2024-01-16T10:11:53;22.70;40.50
75738;DHT22;64356;45.638;13.764;2024-01-16T10:14:20;22.70;40.00
75738;DHT22;64356;45.638;13.764;2024-01-16T10:16:59;22.70;39.30
75738;DHT22;64356;45.638;13.764;2024-01-16T10:19:30;22.70;39.30
75738;DHT22;64356;45.638;13.764;2024-01-16T10:22:05;22.70;38.90
75738;DHT22;64356;45.638;13.764;2024-01-16T10:24:34;22.70;38.20
75738;DHT22;64356;45.638;13.764;2024-01-16T10:27:01;22.60;38.00
75738;DHT22;64356;45.638;13.764;2024-01-16T10:29:29;22.70;38.00
75738;DHT22;64356;45.638;13.764;2024-01-16T10:31:57;22.60;37.40
75738;DHT22;64356;45.638;13.764;2024-01-16T10:34:22;22.70;37.00
75738;DHT22;64356;45.638;13.764;2024-01-16T10:36:49;22.70;37.00
75738;DHT22;64356;45.638;13.764;2024-01-16T10:39:15;22.80;37.20
75738;DHT22;64356;45.638;13.764;2024-01-16T10:41:41;22.80;35.90
75738;DHT22;64356;45.638;13.764;2024-01-16T10:44:07;22.90;36.50
75738;DHT22;64356;45.638;13.764;2024-01-16T10:46:34;22.90;35.90
75738;DHT22;64356;45.638;13.764;2024-01-16T10:49:00;23.00;35.80
75738;DHT22;64356;45.638;13.764;2024-01-16T10:51:27;23.00;35.30
75738;DHT22;64356;45.638;13.764;2024-01-16T10:54:06;23.00;35.50
75738;DHT22;64356;45.638;13.764;2024-01-16T10:56:33;23.00;34.90
75738;DHT22;64356;45.638;13.764;2024-01-16T11:01:46;23.10;35.10
75738;DHT22;64356;45.638;13.764;2024-01-16T11:04:13;23.20;35.70
75738;DHT22;64356;45.638;13.764;2024-01-16T11:06:39;23.30;35.60
75738;DHT22;64356;45.638;13.764;2024-01-16T11:09:08;23.30;34.70
75738;DHT22;64356;45.638;13.764;2024-01-16T11:11:35;23.30;32.50
75738;DHT22;64356;45.638;13.764;2024-01-16T11:14:03;23.20;31.30
75738;DHT22;64356;45.638;13.764;2024-01-16T11:16:30;23.20;30.60
75738;DHT22;64356;45.638;13.764;2024-01-16T11:18:57;23.20;30.00
75738;DHT22;64356;45.638;13.764;2024-01-16T11:21:23;23.10;29.40
75738;DHT22;64356;45.638;13.764;2024-01-16T11:23:50;23.10;29.50
75738;DHT22;64356;45.638;13.764;2024-01-16T11:26:29;23.00;29.00
75738;DHT22;64356;45.638;13.764;2024-01-16T11:28:58;23.00;28.80
75738;DHT22;64356;45.638;13.764;2024-01-16T11:31:28;23.10;28.90
75738;DHT22;64356;45.638;13.764;2024-01-16T11:33:53;23.00;28.30
75738;DHT22;64356;45.638;13.764;2024-01-16T11:39:05;22.90;27.50
75738;DHT22;64356;45.638;13.764;2024-01-16T11:47:01;22.80;36.10
75738;DHT22;64356;45.638;13.764;2024-01-16T11:49:28;22.90;37.00
75738;DHT22;64356;45.638;13.764;2024-01-16T11:51:56;22.90;37.00
75738;DHT22;64356;45.638;13.764;2024-01-16T11:54:22;23.00;37.70
75738;DHT22;64356;45.638;13.764;2024-01-16T11:56:54;23.00;37.80
75738;DHT22;64356;45.638;13.764;2024-01-16T12:02:09;23.10;39.10
75738;DHT22;64356;45.638;13.764;2024-01-16T12:04:37;23.20;38.70
75738;DHT22;64356;45.638;13.764;2024-01-16T12:07:03;23.20;38.60
75738;DHT22;64356;45.638;13.764;2024-01-16T12:09:29;23.30;38.70
75738;DHT22;64356;45.638;13.764;2024-01-16T12:11:59;23.30;37.80
75738;DHT22;64356;45.638;13.764;2024-01-16T12:14:26;23.30;38.00
75738;DHT22;64356;45.638;13.764;2024-01-16T12:16:52;23.30;37.80
75738;DHT22;64356;45.638;13.764;2024-01-16T12:19:18;23.40;37.00
75738;DHT22;64356;45.638;13.764;2024-01-16T12:21:45;23.50;37.10
75738;DHT22;64356;45.638;13.764;2024-01-16T12:24:11;23.50;36.70
75738;DHT22;64356;45.638;13.764;2024-01-16T12:26:36;23.50;36.80
75738;DHT22;64356;45.638;13.764;2024-01-16T12:29:02;23.50;36.60
75738;DHT22;64356;45.638;13.764;2024-01-16T12:31:28;23.50;36.50
75738;DHT22;64356;45.638;13.764;2024-01-16T12:34:15;23.50;36.70
75738;DHT22;64356;45.638;13.764;2024-01-16T12:36:46;23.50;36.50
75738;DHT22;64356;45.638;13.764;2024-01-16T12:39:20;23.50;36.90
75738;DHT22;64356;45.638;13.764;2024-01-16T12:41:46;23.50;36.60
75738;DHT22;64356;45.638;13.764;2024-01-16T12:44:12;23.50;36.30
75738;DHT22;64356;45.638;13.764;2024-01-16T12:46:39;23.50;36.30
75738;DHT22;64356;45.638;13.764;2024-01-16T12:49:05;23.50;36.40
75738;DHT22;64356;45.638;13.764;2024-01-16T12:51:32;23.50;32.30
75738;DHT22;64356;45.638;13.764;2024-01-16T12:54:14;23.50;32.30
75738;DHT22;64356;45.638;13.764;2024-01-16T12:56:40;23.40;30.00
75738;DHT22;64356;45.638;13.764;2024-01-16T12:59:09;23.40;29.80
75738;DHT22;64356;45.638;13.764;2024-01-16T13:01:41;23.40;30.30
75738;DHT22;64356;45.638;13.764;2024-01-16T13:04:11;23.50;30.60
75738;DHT22;64356;45.638;13.764;2024-01-16T13:06:37;23.50;30.80
75738;DHT22;64356;45.638;13.764;2024-01-16T13:09:04;23.60;30.50
75738;DHT22;64356;45.638;13.764;2024-01-16T13:11:44;23.70;30.50
75738;DHT22;64356;45.638;13.764;2024-01-16T13:14:10;23.70;30.40
75738;DHT22;64356;45.638;13.764;2024-01-16T13:16:35;23.70;30.30
75738;DHT22;64356;45.638;13.764;2024-01-16T13:19:01;23.80;30.00
75738;DHT22;64356;45.638;13.764;2024-01-16T13:21:27;23.70;29.90
75738;DHT22;64356;45.638;13.764;2024-01-16T13:23:53;23.70;29.80
75738;DHT22;64356;45.638;13.764;2024-01-16T13:26:18;23.60;30.00
75738;DHT22;64356;45.638;13.764;2024-01-16T13:28:44;23.60;30.00
75738;DHT22;64356;45.638;13.764;2024-01-16T13:31:12;23.60;30.50
75738;DHT22;64356;45.638;13.764;2024-01-16T13:33:38;23.60;31.60
75738;DHT22;64356;45.638;13.764;2024-01-16T13:36:04;23.60;32.40
75738;DHT22;64356;45.638;13.764;2024-01-16T13:38:30;23.50;33.50
75738;DHT22;64356;45.638;13.764;2024-01-16T13:40:55;23.50;34.20
75738;DHT22;64356;45.638;13.764;2024-01-16T13:43:21;23.50;34.60
75738;DHT22;64356;45.638;13.764;2024-01-16T13:45:47;23.50;35.30
75738;DHT22;64356;45.638;13.764;2024-01-16T13:48:15;23.50;35.90
75738;DHT22;64356;45.638;13.764;2024-01-16T13:50:43;23.50;36.30
75738;DHT22;64356;45.638;13.764;2024-01-16T13:53:10;23.50;36.70
75738;DHT22;64356;45.638;13.764;2024-01-16T13:55:39;23.40;36.10
75738;DHT22;64356;45.638;13.764;2024-01-16T13:58:04;23.40;36.70
75738;DHT22;64356;45.638;13.764;2024-01-16T14:00:30;23.40;36.80
75738;DHT22;64356;45.638;13.764;2024-01-16T14:02:57;23.30;36.80
75738;DHT22;64356;45.638;13.764;2024-01-16T14:05:22;23.30;37.10
75738;DHT22;64356;45.638;13.764;2024-01-16T14:07:49;23.30;37.50
75738;DHT22;64356;45.638;13.764;2024-01-16T14:10:22;23.30;37.50
75738;DHT22;64356;45.638;13.764;2024-01-16T14:12:51;23.30;38.00
75738;DHT22;64356;45.638;13.764;2024-01-16T14:15:20;23.30;38.40
75738;DHT22;64356;45.638;13.764;2024-01-16T14:17:52;23.30;38.10
75738;DHT22;64356;45.638;13.764;2024-01-16T14:20:19;23.30;37.10
75738;DHT22;64356;45.638;13.764;2024-01-16T14:22:49;23.30;37.10
75738;DHT22;64356;45.638;13.764;2024-01-16T14:25:15;23.30;36.50
75738;DHT22;64356;45.638;13.764;2024-01-16T14:27:44;23.20;37.30
75738;DHT22;64356;45.638;13.764;2024-01-16T14:30:11;23.20;38.30
75738;DHT22;64356;45.638;13.764;2024-01-16T14:32:37;23.10;38.00
75738;DHT22;64356;45.638;13.764;2024-01-16T14:35:06;22.90;37.90
75738;DHT22;64356;45.638;13.764;2024-01-16T14:37:33;22.80;38.20
75738;DHT22;64356;45.638;13.764;2024-01-16T14:39:59;22.80;38.20
75738;DHT22;64356;45.638;13.764;2024-01-16T14:42:29;22.70;38.20
75738;DHT22;64356;45.638;13.764;2024-01-16T14:44:54;22.70;38.40
75738;DHT22;64356;45.638;13.764;2024-01-16T14:47:21;22.70;38.70
75738;DHT22;64356;45.638;13.764;2024-01-16T14:49:49;22.70;38.80
75738;DHT22;64356;45.638;13.764;2024-01-16T14:52:14;22.70;38.70
75738;DHT22;64356;45.638;13.764;2024-01-16T14:54:40;22.70;38.70
75738;DHT22;64356;45.638;13.764;2024-01-16T14:57:06;22.70;38.80
75738;DHT22;64356;45.638;13.764;2024-01-16T14:59:33;22.70;38.40
75738;DHT22;64356;45.638;13.764;2024-01-16T15:01:58;22.70;38.20
75738;DHT22;64356;45.638;13.764;2024-01-16T15:04:24;22.70;38.20
75738;DHT22;64356;45.638;13.764;2024-01-16T15:06:50;22.70;38.10
75738;DHT22;64356;45.638;13.764;2024-01-16T15:09:20;22.70;38.00
75738;DHT22;64356;45.638;13.764;2024-01-16T15:11:47;22.70;38.00
75738;DHT22;64356;45.638;13.764;2024-01-16T15:14:12;22.70;38.00
75738;DHT22;64356;45.638;13.764;2024-01-16T15:16:38;22.70;38.00
75738;DHT22;64356;45.638;13.764;2024-01-16T15:19:04;22.80;37.90
75738;DHT22;64356;45.638;13.764;2024-01-16T15:21:30;22.80;37.60
75738;DHT22;64356;45.638;13.764;2024-01-16T15:23:56;22.80;36.80
75738;DHT22;64356;45.638;13.764;2024-01-16T15:26:21;22.80;36.70